Latest Coastal Weather Observations for Gabo Island

IDV60701

Issued at 1:45 am EST Wednesday 1 October 2014 (issued every 10 minutes, with the page automatically refreshed every 10 minutes)

About coastal observations | Map of coastal stations | Coastal observations for VIC | Marine services | Other Formats
Station Details ID: 084016 Name: GABO ISLAND LIGHTHOUSE Lat: -37.57 Lon: 149.92 Height: 15.2 m
Data from the previous 72 hours. | See also: Recent months at Gabo Island
Date/Time
EST
Temp

°C
Wind Pressure Rain
since 9am
mm
Weather Cloud Vis
km
Sea
Height
m
Swell
Dir
 
Speed
knots
Gust
knots
hPa Trend Height
m
Period
s
Dir
01/01:31am 10.8 WSW 30 40 1009.5 - 1.0 - - - - - - -
01/01:30am 11.1 WSW 29 37 1009.5 - 1.0 - - - - - - -
01/01:00am 10.3 W 27 34 1009.7 - 1.0 - - - - - - -
01/12:30am 10.0 W 27 34 1009.7 - 1.0 - - - - - - -
01/12:00am 10.2 W 25 32 1010.2 - 1.0 - - - - - - -
 
Date/Time
EST
Temp

°C
Wind Pressure Rain
since 9am
mm
Weather Cloud Vis
km
Sea
Height
m
Swell
Dir
 
Speed
knots
Gust
knots
hPa Trend Height
m
Period
s
Dir
30/11:53pm 10.3 W 24 34 1010.2 - 1.0 - - - - - - -
30/11:30pm 9.7 W 22 27 1010.4 - 1.0 - - - - - - -
30/11:03pm 9.2 W 25 35 1010.6 - 1.0 - - - - - - -
30/11:00pm 9.3 W 26 35 1010.8 - 0.8 - - - - - - -
30/10:30pm 9.2 W 27 33 1010.1 - 0.4 - - - - - - -
30/10:13pm 9.0 WSW 31 43 1010.5 - 0.0 - - - - - - -
30/10:00pm 10.0 WSW 31 39 1010.4 - 0.0 - - - - - - -
30/09:34pm 11.7 WSW 31 41 1010.7 - 0.0 - - - - - - -
30/09:30pm 11.8 WSW 33 41 1010.5 - 0.0 - - - - - - -
30/09:00pm 12.2 WSW 31 37 1009.8 - 0.0 Fine Cloudy 20 2 0.5 10 E
30/08:30pm 12.6 WSW 35 47 1008.7 - 0.0 - - - - - - -
30/08:28pm 12.7 WSW 35 47 1008.6 - 0.0 - - - - - - -
30/08:25pm 12.8 WSW 33 50 1008.6 - 0.0 - - - - - - -
30/08:00pm 13.3 SW 45 60 1007.5 - 0.0 - - - - - - -
30/07:46pm 14.6 SW 45 61 1006.3 - 0.0 - - - - - - -
30/07:45pm 14.8 SW 43 61 1006.4 - 0.0 - - - - - - -
30/07:30pm 15.3 SW 55 69 1004.7 - 0.0 - - - - - - -
30/07:29pm 15.4 SW 56 69 1004.2 - 0.0 - - - - - - -
30/07:28pm 15.6 SW 43 69 1004.2 - 0.0 - - - - - - -
30/07:26pm 16.2 SW 39 54 1004.9 - 0.0 - - - - - - -
30/07:24pm 21.9 W 29 49 1004.7 - 0.0 - - - - - - -
30/07:20pm 22.9 WNW 15 25 1003.0 - 0.0 - - - - - - -
30/07:00pm 23.0 WNW 14 23 1002.3 - 0.0 - - - - - - -
30/06:30pm 23.3 NW 13 20 1002.2 - 0.0 - - - - - - -
30/06:11pm 23.7 WNW 17 26 1002.1 - 0.0 - - - - - - -
30/06:00pm 22.8 WNW 10 16 1002.0 - 0.0 - - - - - - -
30/05:30pm 24.5 NNW 13 18 1001.4 - 0.0 - - - - - - -
30/05:00pm 25.7 NNW 12 21 1001.0 - 0.0 - - - - - - -
30/04:30pm 26.5 NW 14 19 1000.8 - 0.0 - - - - - - -
30/04:00pm 26.1 NNW 13 21 1000.8 - 0.0 - - - - - - -
30/03:47pm 23.3 NNW 13 22 1000.9 - 0.0 - - - - - - -
30/03:30pm 18.1 NE 19 23 1000.9 - 0.0 - - - - - - -
30/03:00pm 18.5 NE 19 24 1001.5 - 0.0 Haze Mostly clear 30 1 1.0 10 SE
30/02:30pm 18.0 NE 18 23 1002.2 - 0.0 - - - - - - -
30/02:00pm 18.3 NE 18 21 1003.4 - 0.0 - - - - - - -
30/01:30pm 18.2 NE 19 22 1004.0 - 0.0 - - - - - - -
30/01:00pm 18.6 NE 16 19 1004.9 - 0.0 - - - - - - -
30/12:30pm 18.8 NE 16 19 1005.4 - 0.0 - - - - - - -
30/12:00pm 18.3 NE 12 14 1006.2 - 0.0 - - - - - - -
30/11:30am 18.5 NE 13 14 1006.9 - 0.0 - - - - - - -
30/11:00am 18.6 NE 11 13 1007.7 - 0.0 - - - - - - -
30/10:30am 18.5 ENE 8 11 1008.3 - 0.0 - - - - - - -
30/10:00am 18.0 S 3 4 1008.8 - 0.0 - - - - - - -
30/09:30am 17.2 S 3 5 1009.2 - 0.0 - - - - - - -
30/09:00am 16.9 SW 3 5 1009.5 - 0.0 Fine Clear 50 1 0.5 10 NE
30/08:30am 15.9 SSW 3 4 1009.9 - 0.0 - - - - - - -
30/08:00am 15.8 E 2 4 1010.1 - 0.0 - - - - - - -
30/07:30am 14.8 CALM 0 3 1010.3 - 0.0 - - - - - - -
30/07:00am 14.3 NNE 3 5 1010.4 - 0.0 - - - - - - -
30/06:30am 12.9 N 4 4 1010.7 - 0.0 - - - - - - -
30/06:00am 11.6 NNE 4 6 1010.3 - 0.0 - - - - - - -
30/05:30am 11.6 WNW 3 5 1010.4 - 0.0 - - - - - - -
30/05:00am 11.0 W 6 6 1010.5 - 0.0 - - - - - - -
30/04:30am 12.3 NNW 3 6 1010.5 - 0.0 - - - - - - -
30/04:00am 12.8 NW 3 5 1010.8 - 0.0 - - - - - - -
30/03:30am 13.1 N 11 13 1010.6 - 0.0 - - - - - - -
30/03:00am 14.3 NNE 15 18 1010.6 - 0.0 Fine Clear 40 1 1.0 9 NE
30/02:30am 14.7 NNE 17 20 1010.4 - 0.0 - - - - - - -
30/02:00am 14.5 NNE 17 19 1010.7 - 0.0 - - - - - - -
30/01:30am 14.1 NNE 16 19 1011.1 - 0.0 - - - - - - -
30/01:00am 14.8 NNE 19 21 1011.4 - 0.0 - - - - - - -
30/12:30am 14.8 NNE 18 21 1011.8 - 0.0 - - - - - - -
30/12:00am 14.8 NNE 18 21 1012.1 - 0.0 - - - - - - -
 
Date/Time
EST
Temp

°C
Wind Pressure Rain
since 9am
mm
Weather Cloud Vis
km
Sea
Height
m
Swell
Dir
 
Speed
knots
Gust
knots
hPa Trend Height
m
Period
s
Dir
29/11:30pm 14.7 NNE 19 23 1012.5 - 0.0 - - - - - - -
29/11:00pm 14.8 NNE 15 18 1013.0 - 0.0 - - - - - - -
29/10:30pm 14.9 NNE 15 18 1013.3 - 0.0 - - - - - - -
29/10:00pm 15.4 NNE 16 18 1013.6 - 0.0 - - - - - - -
29/09:30pm 15.6 NE 15 19 1014.0 - 0.0 - - - - - - -
29/09:00pm 15.7 NE 15 18 1014.1 - 0.0 Fine Clear 40 1 1.5 8 NE
29/08:30pm 15.7 NE 14 17 1014.4 - 0.0 - - - - - - -
29/08:00pm 15.7 NE 14 17 1014.5 - 0.0 - - - - - - -
29/07:30pm 15.6 NE 12 14 1014.4 - 0.0 - - - - - - -
29/07:00pm 15.6 NE 13 15 1014.2 - 0.0 - - - - - - -
29/06:30pm 15.6 NE 11 13 1014.1 - 0.0 - - - - - - -
29/06:00pm 15.7 NE 11 12 1013.6 - 0.0 - - - - - - -
29/05:30pm 15.9 ENE 9 11 1013.3 - 0.0 - - - - - - -
29/05:00pm 16.3 E 6 7 1013.0 - 0.0 - - - - - - -
29/04:30pm 16.7 E 5 6 1012.6 - 0.0 - - - - - - -
29/04:00pm 17.1 SSE 5 6 1012.7 - 0.0 - - - - - - -
29/03:30pm 17.3 S 10 11 1012.5 - 0.0 - - - - - - -
29/03:00pm 17.4 S 12 13 1012.3 - 0.0 Fine Clear 50 1 1.5 9 NE
29/02:30pm 17.6 S 13 15 1012.5 - 0.0 - - - - - - -
29/02:00pm 17.5 SSW 18 21 1012.4 - 0.0 - - - - - - -
29/01:30pm 17.2 SSW 21 24 1012.2 - 0.0 - - - - - - -
29/01:00pm 17.5 SSW 23 26 1012.2 - 0.0 - - - - - - -
29/12:30pm 16.9 SSW 24 28 1012.3 - 0.0 - - - - - - -
29/12:00pm 16.8 SSW 24 29 1012.2 - 0.0 - - - - - - -
29/11:30am 16.9 SSW 24 28 1012.2 - 0.0 - - - - - - -
29/11:00am 16.9 SSW 26 31 1012.5 - 0.0 - - - - - - -
29/10:30am 16.9 SW 26 29 1012.5 - 0.0 - - - - - - -
29/10:00am 17.0 SW 23 29 1013.1 - 0.0 - - - - - - -
29/09:30am 17.2 SW 25 30 1012.9 - 0.0 - - - - - - -
29/09:23am 17.0 SW 24 29 1012.9 - 0.0 - - - - - - -
29/09:00am 17.3 SW 12 19 1013.1 - 0.0 Fine Clear 50 1 1.0 9 NE
29/08:30am 16.9 SW 9 11 1012.7 - 0.0 - - - - - - -
29/08:00am 16.6 WSW 11 14 1012.4 - 0.0 - - - - - - -
29/07:30am 16.5 WSW 12 15 1012.0 - 0.0 - - - - - - -
29/07:00am 16.1 WSW 14 17 1012.0 - 0.0 - - - - - - -
29/06:30am 15.7 WSW 15 19 1011.8 - 0.0 - - - - - - -
29/06:00am 16.2 SW 17 20 1011.6 - 0.0 - - - - - - -
29/05:30am 16.0 SW 18 26 1011.2 - 0.0 - - - - - - -
29/05:27am 16.3 SW 16 30 1011.1 - 0.0 - - - - - - -
29/05:00am 16.9 SW 30 37 1009.7 - 0.0 - - - - - - -
29/04:51am 17.0 SW 33 43 1009.3 - 0.0 - - - - - - -
29/04:38am 17.4 WSW 32 39 1008.3 - 0.0 - - - - - - -
29/04:36am 17.2 W 19 36 1008.5 - 0.0 - - - - - - -
29/04:34am 17.0 W 16 26 1008.5 - 0.0 - - - - - - -
29/04:30am 15.2 N 7 9 1007.0 - 0.0 - - - - - - -
29/04:00am 15.1 N 8 9 1006.4 - 0.0 - - - - - - -
29/03:30am 16.6 NNE 10 13 1005.9 - 0.0 - - - - - - -
29/03:00am 15.9 NNE 8 10 1006.3 - 0.0 Fine Mostly clear 35 1 1.0 8 NE
29/02:30am 16.1 NNE 13 16 1006.3 - 0.0 - - - - - - -
29/02:00am 15.9 N 16 19 1006.5 - 0.0 - - - - - - -
29/01:30am 16.5 N 12 15 1007.6 - 0.0 - - - - - - -
29/01:00am 16.8 N 13 16 1008.1 - 0.0 - - - - - - -
29/12:30am 17.9 N 14 18 1008.5 - 0.0 - - - - - - -
29/12:00am 17.2 N 10 13 1008.7 - 0.0 - - - - - - -
 
Date/Time
EST
Temp

°C
Wind Pressure Rain
since 9am
mm
Weather Cloud Vis
km
Sea
Height
m
Swell
Dir
 
Speed
knots
Gust
knots
hPa Trend Height
m
Period
s
Dir
28/11:30pm 17.8 N 11 15 1008.8 - 0.0 - - - - - - -
28/11:00pm 17.8 N 13 15 1008.8 - 0.0 - - - - - - -
28/10:30pm 16.0 N 9 12 1009.4 - 0.0 - - - - - - -
28/10:00pm 15.9 NNE 11 12 1009.5 - 0.0 - - - - - - -
28/09:30pm 16.3 N 12 14 1009.8 - 0.0 - - - - - - -
28/09:00pm 16.6 N 13 15 1009.9 - 0.0 Fine Mostly cloudy 30 1 1.0 8 NE
28/08:30pm 16.7 NNE 13 16 1009.9 - 0.0 - - - - - - -
28/08:00pm 16.9 NNE 16 20 1009.7 - 0.0 - - - - - - -
28/07:30pm 17.1 NNE 19 22 1009.3 - 0.0 - - - - - - -
28/07:00pm 17.4 NNE 21 25 1009.3 - 0.0 - - - - - - -
28/06:30pm 17.6 NNE 20 24 1009.6 - 0.0 - - - - - - -
28/06:00pm 17.8 NNE 22 27 1009.5 - 0.0 - - - - - - -
28/05:30pm 18.0 NNE 23 28 1009.6 - 0.0 - - - - - - -
28/05:00pm 18.0 NNE 24 28 1009.5 - 0.0 - - - - - - -
28/04:30pm 18.2 NNE 25 31 1009.4 - 0.0 - - - - - - -
28/04:00pm 18.5 NNE 25 30 1009.4 - 0.0 - - - - - - -
28/03:30pm 18.9 NNE 25 30 1010.1 - 0.0 - - - - - - -
28/03:00pm 19.0 NNE 24 28 1010.7 - 0.0 Fine Mostly cloudy 30 1 0.5 11 SE
28/02:30pm 19.3 NNE 24 28 1011.2 - 0.0 - - - - - - -
28/02:00pm 19.2 NNE 22 26 1011.9 - 0.0 - - - - - - -
28/01:30pm 19.7 NNE 20 25 1012.4 - 0.0 - - - - - - -
28/01:00pm 20.0 NNE 19 21 1013.0 - 0.0 - - - - - - -
28/12:30pm 20.2 NNE 18 21 1013.5 - 0.0 - - - - - - -
28/12:00pm 19.9 NNE 18 22 1013.7 - 0.0 - - - - - - -
28/11:30am 19.5 NE 16 19 1014.2 - 0.0 - - - - - - -
28/11:00am 19.8 NNE 17 21 1014.5 - 0.0 - - - - - - -
28/10:30am 18.6 NE 17 20 1015.0 - 0.0 - - - - - - -
28/10:00am 18.6 NE 16 18 1015.5 - 0.0 - - - - - - -
28/09:30am 18.8 NNE 15 17 1016.0 - 0.0 - - - - - - -
28/09:00am 18.0 NNE 13 15 1016.5 - 0.0 - - - - - - -
28/08:30am 17.5 NNE 12 15 1016.8 - 0.0 - - - - - - -
28/08:00am 16.6 NNE 13 16 1017.0 - 0.0 - - - - - - -
28/07:30am 15.2 NNE 12 15 1017.1 - 0.0 - - - - - - -
28/07:00am 14.1 N 10 12 1017.1 - 0.0 - - - - - - -
28/06:30am 13.0 N 13 15 1017.3 - 0.0 - - - - - - -
28/06:00am 12.7 N 11 13 1017.1 - 0.0 - - - - - - -
28/05:30am 12.5 N 11 14 1017.2 - 0.0 - - - - - - -
28/05:00am 12.4 N 10 11 1017.2 - 0.0 - - - - - - -
28/04:30am 12.5 NNE 11 13 1017.1 - 0.0 - - - - - - -
28/04:00am 12.5 N 11 13 1017.3 - 0.0 - - - - - - -
28/03:30am 12.7 N 11 13 1017.4 - 0.0 - - - - - - -
28/03:00am 13.1 NNE 12 14 1017.6 - 0.0 Fine Clear 40 1 0.5 12 S
28/02:30am 13.3 N 14 16 1017.8 - 0.0 - - - - - - -
28/02:00am 13.6 N 15 17 1018.0 - 0.0 - - - - - - -

Other Formats:

Comma delimited format used in spreadsheet applications
http://www.bom.gov.au/fwo/IDV60701/IDV60701.94933.axf

JavaScript Object Notation format (JSON) in row-major order
http://www.bom.gov.au/fwo/IDV60701/IDV60701.94933.json